Time;durP1;ratioP1;P1;durP2;ratioP2;P2;SDS_P1;SDS_P2;PMS_P1;PMS_P2;Temp;Humidity;BMP_temperature;BMP_pressure;BME280_temperature;BME280_humidity;BME280_pressure;Samples;Min_cycle;Max_cycle;Signal;HPM_P1;HPM_P2
2023/06/19 00:00:56;;;;;;;10.05;7.00;;;22.90;93.40;;;;;;5013418;28;20537;-76
2023/06/19 00:03:22;;;;;;;8.90;6.40;;;22.90;93.40;;;;;;5000964;28;20042;-75
2023/06/19 00:05:47;;;;;;;9.65;6.93;;;22.90;93.30;;;;;;4994714;28;20046;-74
2023/06/19 00:08:13;;;;;;;9.13;6.80;;;22.90;93.40;;;;;;4993574;28;20486;-76
2023/06/19 00:10:39;;;;;;;10.45;6.35;;;22.90;93.50;;;;;;4993994;28;20078;-75
2023/06/19 00:13:05;;;;;;;8.27;6.63;;;22.90;93.30;;;;;;4992741;28;20502;-76
2023/06/19 00:15:30;;;;;;;10.13;6.10;;;22.90;93.40;;;;;;4993649;28;20042;-75
2023/06/19 00:17:57;;;;;;;10.88;6.63;;;22.90;93.10;;;;;;4994970;28;20046;-76
2023/06/19 00:20:24;;;;;;;12.60;6.60;;;22.90;93.30;;;;;;4994926;28;20053;-75
2023/06/19 00:22:51;;;;;;;7.97;6.88;;;22.90;93.40;;;;;;4998612;28;20042;-76
2023/06/19 00:25:19;;;;;;;10.00;6.85;;;22.90;93.10;;;;;;4997877;28;20117;-75
2023/06/19 00:27:45;;;;;;;9.25;6.97;;;22.90;93.30;;;;;;4993035;28;20042;-75
2023/06/19 00:30:11;;;;;;;9.20;6.90;;;22.90;93.20;;;;;;4993079;28;20046;-75
2023/06/19 00:32:46;;;;;;;7.95;6.50;;;22.90;93.20;;;;;;4992524;28;20509;-75
2023/06/19 00:35:17;;;;;;;7.97;6.78;;;22.90;93.10;;;;;;4993116;28;20085;-75
2023/06/19 00:37:46;;;;;;;9.85;6.40;;;22.90;93.20;;;;;;4993142;28;20402;-75
2023/06/19 00:40:29;;;;;;;9.02;6.57;;;22.90;93.10;;;;;;4992610;28;20254;-75
2023/06/19 00:42:55;;;;;;;9.25;6.22;;;22.90;93.00;;;;;;4992891;28;20038;-75
2023/06/19 00:45:21;;;;;;;7.70;6.35;;;22.90;93.00;;;;;;4992989;28;20092;-75
2023/06/19 00:47:47;;;;;;;7.47;6.43;;;22.90;93.30;;;;;;4992419;28;20054;-75
2023/06/19 00:50:12;;;;;;;9.02;6.75;;;22.90;93.30;;;;;;4993948;28;20050;-75
2023/06/19 00:52:39;;;;;;;9.68;6.32;;;22.80;93.70;;;;;;4992182;28;20042;-75
2023/06/19 00:55:07;;;;;;;11.07;7.15;;;22.80;93.50;;;;;;4993769;28;20042;-75
2023/06/19 00:57:33;;;;;;;8.90;7.13;;;22.80;93.60;;;;;;4992251;28;20416;-75
2023/06/19 00:59:59;;;;;;;7.28;6.07;;;22.80;93.40;;;;;;4992415;28;20504;-75
2023/06/19 01:02:25;;;;;;;10.25;6.65;;;22.80;93.50;;;;;;4992625;28;20046;-76
2023/06/19 01:04:51;;;;;;;8.95;6.25;;;22.80;93.70;;;;;;4993660;28;20046;-75
2023/06/19 01:07:27;;;;;;;8.63;6.85;;;22.80;93.70;;;;;;4992324;28;20057;-75
2023/06/19 01:09:59;;;;;;;8.25;6.50;;;22.70;93.60;;;;;;4992439;28;20125;-76
2023/06/19 01:12:44;;;;;;;11.05;6.55;;;22.70;93.90;;;;;;4991897;28;20061;-76
2023/06/19 01:15:11;;;;;;;10.63;6.90;;;22.70;93.80;;;;;;4992416;28;20528;-76
2023/06/19 01:17:37;;;;;;;9.25;6.97;;;22.70;93.80;;;;;;4992414;28;20387;-76
2023/06/19 01:20:10;;;;;;;9.57;7.13;;;22.60;93.90;;;;;;4992734;28;20401;-76
2023/06/19 01:22:36;;;;;;;9.73;7.43;;;22.60;94.10;;;;;;4998194;28;20053;-76
2023/06/19 01:25:04;;;;;;;9.25;6.32;;;22.60;94.20;;;;;;5004486;28;20454;-76
2023/06/19 01:27:30;;;;;;;8.35;6.82;;;22.60;94.50;;;;;;4992061;28;20120;-76
2023/06/19 01:29:57;;;;;;;10.65;7.30;;;22.50;94.50;;;;;;4992282;28;20100;-76
2023/06/19 01:32:32;;;;;;;8.05;6.50;;;22.50;94.50;;;;;;4975674;28;20521;-75
2023/06/19 01:35:01;;;;;;;13.85;7.53;;;22.50;94.50;;;;;;4976739;28;20046;-76
2023/06/19 01:37:28;;;;;;;8.23;6.40;;;22.40;94.60;;;;;;4993582;28;20046;-76
2023/06/19 01:39:56;;;;;;;10.35;7.25;;;22.40;94.60;;;;;;5000730;28;20124;-75
2023/06/19 01:42:22;;;;;;;8.68;6.63;;;22.40;94.60;;;;;;5002584;28;20099;-75
2023/06/19 01:44:50;;;;;;;9.52;7.03;;;22.30;94.70;;;;;;5011934;28;20103;-75
2023/06/19 01:47:19;;;;;;;10.23;6.68;;;22.30;94.80;;;;;;5011399;28;20053;-76
2023/06/19 01:49:46;;;;;;;9.73;6.75;;;22.30;94.90;;;;;;5011591;28;20042;-76
2023/06/19 01:52:13;;;;;;;9.60;7.43;;;22.30;94.90;;;;;;4994730;28;20053;-76
2023/06/19 01:54:39;;;;;;;10.35;7.05;;;22.30;95.00;;;;;;4993583;28;20054;-76
2023/06/19 01:57:05;;;;;;;8.68;7.50;;;22.20;95.10;;;;;;4991536;28;20050;-75
2023/06/19 01:59:30;;;;;;;8.93;6.93;;;22.20;95.10;;;;;;4991427;28;20046;-76
2023/06/19 02:01:56;;;;;;;9.23;7.00;;;22.20;95.30;;;;;;4991337;28;20060;-76
2023/06/19 02:04:22;;;;;;;9.82;7.32;;;22.20;95.30;;;;;;4991701;28;20069;-76
2023/06/19 02:06:47;;;;;;;8.52;6.47;;;22.10;95.30;;;;;;4991367;28;20535;-75
2023/06/19 02:09:13;;;;;;;8.93;6.88;;;22.10;95.40;;;;;;4991380;28;20049;-75
2023/06/19 02:11:39;;;;;;;14.18;7.82;;;22.10;95.50;;;;;;4992273;28;20501;-75
2023/06/19 02:14:05;;;;;;;8.40;6.93;;;22.10;95.50;;;;;;4994839;28;20130;-76
2023/06/19 02:16:30;;;;;;;11.75;6.78;;;22.10;95.60;;;;;;4992991;28;20124;-76
2023/06/19 02:18:56;;;;;;;11.48;6.97;;;22.00;95.70;;;;;;4991592;28;20085;-76
2023/06/19 02:21:22;;;;;;;10.60;6.80;;;22.00;95.80;;;;;;4990909;28;20101;-75
2023/06/19 02:23:48;;;;;;;8.30;6.93;;;22.00;95.80;;;;;;4991001;28;20046;-76
2023/06/19 02:26:14;;;;;;;10.98;7.22;;;22.00;95.90;;;;;;4991000;28;20042;-74
2023/06/19 02:28:40;;;;;;;7.68;6.35;;;22.00;96.00;;;;;;5003899;28;20060;-76
2023/06/19 02:31:05;;;;;;;9.73;6.85;;;22.00;96.00;;;;;;4994132;28;20440;-75
2023/06/19 02:33:32;;;;;;;10.45;7.13;;;22.00;96.10;;;;;;5011813;28;20050;-76
2023/06/19 02:35:58;;;;;;;10.57;7.22;;;22.00;96.10;;;;;;5026986;28;20085;-75
2023/06/19 02:38:26;;;;;;;9.30;6.80;;;22.00;96.30;;;;;;5011464;28;20045;-75
2023/06/19 02:40:51;;;;;;;8.18;6.18;;;22.00;96.30;;;;;;5027019;28;20409;-75
2023/06/19 02:43:17;;;;;;;8.70;6.82;;;22.00;96.30;;;;;;5011556;28;20048;-75
2023/06/19 02:45:43;;;;;;;8.45;6.63;;;22.00;96.40;;;;;;4993951;28;20056;-75
2023/06/19 02:48:09;;;;;;;7.53;6.53;;;22.00;97.00;;;;;;5027129;28;20046;-76
2023/06/19 02:50:35;;;;;;;10.60;7.15;;;22.00;96.70;;;;;;5011623;28;20053;-76
2023/06/19 02:53:01;;;;;;;8.57;5.72;;;22.00;96.70;;;;;;5010059;28;20118;-76
2023/06/19 02:55:27;;;;;;;11.57;7.28;;;22.00;96.80;;;;;;5009950;28;20046;-75
2023/06/19 02:57:53;;;;;;;8.25;6.28;;;22.00;97.10;;;;;;5013206;28;20037;-76
2023/06/19 03:00:19;;;;;;;10.27;6.38;;;22.00;97.20;;;;;;5031442;28;20050;-76
2023/06/19 03:02:48;;;;;;;8.80;6.43;;;22.00;97.20;;;;;;5011522;28;20369;-76
2023/06/19 03:05:16;;;;;;;9.88;6.75;;;22.00;97.10;;;;;;5026871;28;20042;-76
2023/06/19 03:07:42;;;;;;;10.15;6.95;;;22.10;97.40;;;;;;5026694;28;20050;-75
2023/06/19 03:10:08;;;;;;;9.23;7.03;;;22.00;97.70;;;;;;5026793;28;20532;-76
2023/06/19 03:12:34;;;;;;;8.20;6.60;;;22.00;97.60;;;;;;5009550;28;20136;-76
2023/06/19 03:14:59;;;;;;;9.23;6.50;;;22.00;97.90;;;;;;5026858;28;20590;-76
2023/06/19 03:17:25;;;;;;;9.23;6.60;;;22.00;98.40;;;;;;5026696;28;20500;-77
2023/06/19 03:19:51;;;;;;;8.68;6.40;;;21.90;98.20;;;;;;5010153;28;20127;-77
2023/06/19 03:22:19;;;;;;;13.02;7.30;;;21.90;98.00;;;;;;5026592;28;20125;-77
2023/06/19 03:24:44;;;;;;;12.70;6.82;;;21.90;98.20;;;;;;5026327;28;20046;-76
2023/06/19 03:27:10;;;;;;;9.13;6.80;;;21.90;98.60;;;;;;5026415;28;20710;-77
2023/06/19 03:29:36;;;;;;;8.05;6.28;;;21.90;98.50;;;;;;5026541;28;20085;-77
2023/06/19 03:32:01;;;;;;;9.60;7.10;;;21.90;98.70;;;;;;5026298;28;20056;-77
2023/06/19 03:34:27;;;;;;;9.88;6.60;;;21.90;98.60;;;;;;5011617;28;20041;-77
2023/06/19 03:36:53;;;;;;;7.93;5.93;;;21.90;98.40;;;;;;5026407;28;20121;-77
2023/06/19 03:39:19;;;;;;;9.30;5.93;;;21.90;98.70;;;;;;5009851;28;20034;-77
2023/06/19 03:41:45;;;;;;;9.60;6.10;;;21.90;98.50;;;;;;5010105;28;20398;-76
2023/06/19 03:44:10;;;;;;;8.80;6.05;;;21.90;98.80;;;;;;5026614;28;20038;-77
2023/06/19 03:46:36;;;;;;;8.13;5.85;;;21.90;98.70;;;;;;5026470;28;20050;-76
2023/06/19 03:49:04;;;;;;;7.43;5.05;;;21.90;98.60;;;;;;5011385;28;20050;-77
2023/06/19 03:51:30;;;;;;;8.10;5.50;;;22.00;98.50;;;;;;5009836;28;20174;-77
2023/06/19 03:53:56;;;;;;;9.00;5.45;;;21.90;98.60;;;;;;5009698;28;20959;-77
2023/06/19 03:56:21;;;;;;;7.85;5.32;;;21.90;98.70;;;;;;5026058;28;20052;-76
2023/06/19 03:58:47;;;;;;;10.85;4.75;;;21.90;98.80;;;;;;5025936;28;20089;-77
2023/06/19 04:01:13;;;;;;;6.40;5.35;;;21.90;99.20;;;;;;5009286;28;20077;-77
2023/06/19 04:03:38;;;;;;;8.88;5.50;;;21.90;98.90;;;;;;5026253;28;20050;-77
2023/06/19 04:06:04;;;;;;;7.07;5.75;;;21.90;99.10;;;;;;5009712;28;20038;-76
2023/06/19 04:08:30;;;;;;;8.20;5.30;;;21.90;99.10;;;;;;5011340;28;20046;-77
2023/06/19 04:10:56;;;;;;;8.25;5.43;;;21.90;99.20;;;;;;5013349;28;20042;-76
2023/06/19 04:13:21;;;;;;;8.25;4.65;;;21.90;99.20;;;;;;5029520;28;20112;-77
2023/06/19 04:15:47;;;;;;;7.10;4.97;;;21.80;99.20;;;;;;5030297;28;20041;-75
2023/06/19 04:18:13;;;;;;;9.82;5.47;;;21.90;99.20;;;;;;5021143;28;20046;-76
2023/06/19 04:20:40;;;;;;;6.38;4.72;;;21.90;99.20;;;;;;5032570;28;20105;-76
2023/06/19 04:23:05;;;;;;;7.22;4.78;;;21.90;99.40;;;;;;5029865;28;20042;-77
2023/06/19 04:25:31;;;;;;;7.32;4.30;;;21.90;99.40;;;;;;5029482;28;20046;-76
2023/06/19 04:27:57;;;;;;;4.45;3.72;;;21.90;99.60;;;;;;5029860;28;20041;-77
2023/06/19 04:30:22;;;;;;;4.80;3.90;;;21.80;99.60;;;;;;5014325;28;20085;-76
2023/06/19 04:32:48;;;;;;;5.40;3.90;;;21.90;99.90;;;;;;5013060;28;20129;-76
2023/06/19 04:35:14;;;;;;;8.75;3.75;;;22.00;99.90;;;;;;5012556;28;20455;-77
2023/06/19 04:37:40;;;;;;;7.18;3.47;;;22.00;99.90;;;;;;5029132;28;20045;-77
2023/06/19 04:40:07;;;;;;;4.65;3.10;;;22.00;99.90;;;;;;5012883;28;20046;-77
2023/06/19 04:42:33;;;;;;;4.90;3.55;;;22.10;99.90;;;;;;5013067;28;20050;-77
2023/06/19 04:44:59;;;;;;;4.13;3.47;;;22.10;99.90;;;;;;5029620;28;20065;-77
2023/06/19 04:47:25;;;;;;;5.60;3.75;;;22.20;99.90;;;;;;5013358;28;20041;-77
2023/06/19 04:49:51;;;;;;;7.18;3.65;;;22.20;99.90;;;;;;5029280;28;20042;-77
2023/06/19 04:52:18;;;;;;;5.82;3.40;;;22.20;99.90;;;;;;5029548;28;20042;-77
2023/06/19 04:54:44;;;;;;;4.38;2.90;;;22.30;99.90;;;;;;5013172;28;20050;-77
2023/06/19 04:57:10;;;;;;;4.88;2.95;;;22.20;99.90;;;;;;5015608;28;20069;-77
2023/06/19 04:59:36;;;;;;;4.90;3.60;;;22.20;99.90;;;;;;5032229;28;20049;-77
2023/06/19 05:02:02;;;;;;;5.03;3.20;;;22.20;99.90;;;;;;5031037;28;20054;-77
2023/06/19 05:04:32;;;;;;;7.22;3.00;;;22.10;99.90;;;;;;5013752;28;20103;-77
2023/06/19 05:06:58;;;;;;;4.75;2.85;;;22.00;99.90;;;;;;5012355;28;20096;-76
2023/06/19 05:09:24;;;;;;;4.45;3.28;;;21.90;99.90;;;;;;5024633;28;20050;-77
2023/06/19 05:11:50;;;;;;;6.43;4.07;;;21.90;99.90;;;;;;5002939;28;20569;-76
2023/06/19 05:14:16;;;;;;;9.73;3.28;;;21.90;99.90;;;;;;5008600;28;20061;-76
2023/06/19 05:16:41;;;;;;;4.57;3.30;;;21.80;99.90;;;;;;5028667;28;20120;-75
2023/06/19 05:19:07;;;;;;;4.55;3.17;;;21.90;99.90;;;;;;5010890;28;20134;-76
2023/06/19 05:21:33;;;;;;;6.15;3.53;;;22.00;99.90;;;;;;5028825;28;20037;-76
2023/06/19 05:23:58;;;;;;;5.43;3.42;;;22.10;99.90;;;;;;5028606;28;20136;-76
2023/06/19 05:26:25;;;;;;;4.90;3.53;;;22.20;99.90;;;;;;5013169;28;20092;-76
2023/06/19 05:28:51;;;;;;;5.95;3.38;;;22.30;99.90;;;;;;5012122;28;20054;-76
2023/06/19 05:31:18;;;;;;;4.18;3.47;;;22.40;99.90;;;;;;5012721;28;20042;-76
2023/06/19 05:33:44;;;;;;;4.13;3.40;;;22.30;99.90;;;;;;5011894;28;20054;-75
2023/06/19 05:36:10;;;;;;;4.70;4.13;;;22.40;99.90;;;;;;5014620;28;20058;-75
2023/06/19 05:38:36;;;;;;;4.30;3.30;;;22.40;99.90;;;;;;5011558;28;20045;-74
2023/06/19 05:41:06;;;;;;;6.53;3.80;;;22.60;99.90;;;;;;5010917;28;20069;-74
2023/06/19 05:43:32;;;;;;;4.75;2.90;;;22.50;99.90;;;;;;4996411;28;20054;-75
2023/06/19 05:45:59;;;;;;;7.00;3.40;;;22.70;99.90;;;;;;4991572;28;20278;-75
2023/06/19 05:48:25;;;;;;;5.35;3.88;;;22.70;99.90;;;;;;4990910;28;20061;-74
2023/06/19 05:50:51;;;;;;;4.53;3.42;;;22.70;99.90;;;;;;4997611;28;20148;-73
2023/06/19 05:53:17;;;;;;;4.80;3.75;;;22.70;99.90;;;;;;5011946;28;20127;-74
2023/06/19 05:55:43;;;;;;;5.90;3.40;;;22.50;99.90;;;;;;5010534;28;20081;-74
2023/06/19 05:58:09;;;;;;;4.85;3.45;;;22.60;99.90;;;;;;4994579;28;20049;-75
2023/06/19 06:00:35;;;;;;;7.38;2.95;;;22.50;99.90;;;;;;5011189;28;20589;-75
2023/06/19 06:03:00;;;;;;;4.43;3.50;;;22.60;99.90;;;;;;5010555;28;20077;-76
2023/06/19 06:05:27;;;;;;;4.88;3.58;;;22.50;99.90;;;;;;5012350;28;20077;-75
2023/06/19 06:07:53;;;;;;;4.78;3.35;;;22.50;99.90;;;;;;5010584;28;20034;-75
2023/06/19 06:10:21;;;;;;;5.93;3.30;;;22.50;99.90;;;;;;5010493;28;20496;-72
2023/06/19 06:12:48;;;;;;;4.65;3.60;;;22.40;99.90;;;;;;5010148;28;20116;-73
2023/06/19 06:15:13;;;;;;;6.60;3.20;;;22.50;99.90;;;;;;5010133;28;20050;-73
2023/06/19 06:17:39;;;;;;;5.18;3.53;;;22.30;99.90;;;;;;4993524;28;20096;-72
2023/06/19 06:20:11;;;;;;;5.47;3.40;;;22.30;99.90;;;;;;5013066;28;20049;-73
2023/06/19 06:22:37;;;;;;;4.90;3.33;;;22.30;99.90;;;;;;5028612;28;20069;-72
2023/06/19 06:25:02;;;;;;;5.80;3.78;;;22.30;99.90;;;;;;5011475;28;20037;-73
2023/06/19 06:27:28;;;;;;;4.22;3.53;;;22.40;99.90;;;;;;5013649;28;20398;-73
2023/06/19 06:29:54;;;;;;;4.15;3.60;;;22.30;99.90;;;;;;5011211;28;20084;-72
2023/06/19 06:32:19;;;;;;;6.60;3.90;;;22.40;99.90;;;;;;5011205;28;20046;-72
2023/06/19 06:34:45;;;;;;;6.05;4.38;;;22.40;99.90;;;;;;5013366;28;20160;-72
2023/06/19 06:37:11;;;;;;;8.00;3.78;;;22.40;99.90;;;;;;5013208;28;20048;-73
2023/06/19 06:39:38;;;;;;;6.00;3.92;;;22.40;99.90;;;;;;5012454;28;20485;-72
2023/06/19 06:42:04;;;;;;;5.57;3.75;;;22.40;99.90;;;;;;5027927;28;20060;-72
2023/06/19 06:44:30;;;;;;;5.53;4.25;;;22.30;99.90;;;;;;5009706;28;20054;-73
2023/06/19 06:46:56;;;;;;;5.25;4.05;;;22.50;99.90;;;;;;5011530;28;20052;-72
2023/06/19 06:49:22;;;;;;;6.47;4.63;;;22.40;99.90;;;;;;5010085;28;20046;-73
2023/06/19 06:51:47;;;;;;;7.57;5.15;;;22.30;99.90;;;;;;5010043;28;20486;-73
2023/06/19 06:54:13;;;;;;;6.75;4.43;;;22.40;99.90;;;;;;5009943;28;20057;-73
2023/06/19 06:56:39;;;;;;;6.35;4.78;;;22.40;99.90;;;;;;5009810;28;20050;-72
2023/06/19 06:59:04;;;;;;;8.23;5.18;;;22.30;99.90;;;;;;5010795;28;20496;-73
2023/06/19 07:01:30;;;;;;;7.97;5.10;;;22.30;99.90;;;;;;5009560;28;20046;-73
2023/06/19 07:03:56;;;;;;;6.13;4.65;;;22.40;99.90;;;;;;4993543;28;20402;-73
2023/06/19 07:06:22;;;;;;;7.85;4.70;;;22.40;99.90;;;;;;5009723;28;20050;-72
2023/06/19 07:08:47;;;;;;;7.30;5.18;;;22.40;99.90;;;;;;5009914;28;20413;-72
2023/06/19 07:11:14;;;;;;;9.40;5.50;;;22.30;99.90;;;;;;5011180;28;20049;-72
2023/06/19 07:13:41;;;;;;;6.78;5.18;;;22.40;99.90;;;;;;5025495;28;20054;-73
2023/06/19 07:16:07;;;;;;;6.15;4.80;;;22.30;99.90;;;;;;5009281;28;20057;-72
2023/06/19 07:18:35;;;;;;;8.00;4.78;;;22.20;99.90;;;;;;5009474;28;20482;-72
2023/06/19 07:21:04;;;;;;;7.88;4.38;;;22.10;99.90;;;;;;5009618;28;20045;-72
2023/06/19 07:23:29;;;;;;;7.60;4.72;;;22.20;99.90;;;;;;5007662;28;20045;-72
2023/06/19 07:25:55;;;;;;;6.50;4.75;;;22.10;99.90;;;;;;5019348;28;20030;-72
2023/06/19 07:28:21;;;;;;;11.90;4.85;;;22.10;99.90;;;;;;5020424;28;20091;-72
2023/06/19 07:30:47;;;;;;;5.63;4.45;;;22.10;99.90;;;;;;5020490;28;20144;-72
2023/06/19 07:33:13;;;;;;;7.65;4.97;;;22.10;99.90;;;;;;5019365;28;20046;-72
2023/06/19 07:35:39;;;;;;;6.88;4.60;;;22.10;99.90;;;;;;5010126;28;20506;-71
2023/06/19 07:38:05;;;;;;;5.03;4.10;;;22.00;99.90;;;;;;5011091;28;20045;-72
2023/06/19 07:40:30;;;;;;;7.85;4.63;;;22.10;99.90;;;;;;5010098;28;20397;-74
2023/06/19 07:42:56;;;;;;;11.65;5.35;;;22.00;99.90;;;;;;5013255;28;20054;-73
2023/06/19 07:45:23;;;;;;;5.10;4.13;;;22.00;99.90;;;;;;5013349;28;20095;-73
2023/06/19 07:47:58;;;;;;;6.95;5.15;;;22.00;99.90;;;;;;4994296;28;20100;-73
2023/06/19 07:50:24;;;;;;;8.65;4.85;;;22.00;99.90;;;;;;5011938;28;20046;-73
2023/06/19 07:52:49;;;;;;;6.10;4.70;;;22.00;99.90;;;;;;5014346;28;20044;-72
2023/06/19 07:55:15;;;;;;;6.63;4.20;;;22.10;99.90;;;;;;5014187;28;20424;-72
2023/06/19 07:57:41;;;;;;;6.95;4.60;;;22.10;99.90;;;;;;5012755;28;20069;-72
2023/06/19 08:00:13;;;;;;;5.32;4.50;;;22.10;99.90;;;;;;5012407;28;20408;-72
2023/06/19 08:02:39;;;;;;;;;;;22.10;99.90;;;;;;5013302;28;20053;-71
2023/06/19 08:05:06;;;;;;;5.20;4.43;;;22.00;99.90;;;;;;5013084;28;19922;-72
2023/06/19 08:07:32;;;;;;;5.00;4.32;;;22.00;99.90;;;;;;5012878;28;20050;-72
2023/06/19 08:09:57;;;;;;;10.90;5.30;;;22.00;99.90;;;;;;5011832;28;20401;-72
2023/06/19 08:12:23;;;;;;;8.38;5.50;;;22.00;99.90;;;;;;5000569;28;20058;-73
2023/06/19 08:14:49;;;;;;;7.88;6.10;;;22.00;99.90;;;;;;5002270;28;20050;-72
2023/06/19 08:17:14;;;;;;;8.40;7.20;;;22.10;99.90;;;;;;5028938;28;20053;-73
2023/06/19 08:19:42;;;;;;;8.50;7.60;;;22.10;99.90;;;;;;5012681;28;20076;-72
2023/06/19 08:22:08;;;;;;;7.60;6.85;;;22.10;99.90;;;;;;5006588;28;20409;-73
2023/06/19 08:24:36;;;;;;;7.63;6.60;;;22.00;99.90;;;;;;4994000;28;20103;-71
2023/06/19 08:27:02;;;;;;;6.38;5.03;;;21.90;99.90;;;;;;4997183;28;20042;-72
2023/06/19 08:29:28;;;;;;;6.72;5.70;;;22.10;99.90;;;;;;5012234;28;20057;-72
2023/06/19 08:31:53;;;;;;;8.73;6.07;;;22.20;99.90;;;;;;5012059;28;20057;-71
2023/06/19 08:34:19;;;;;;;6.13;5.25;;;22.20;99.90;;;;;;5012154;28;20073;-72
2023/06/19 08:36:45;;;;;;;6.72;5.82;;;22.30;99.90;;;;;;5010679;28;20241;-72
2023/06/19 08:39:11;;;;;;;8.50;5.43;;;22.30;99.90;;;;;;5013116;28;20045;-70
2023/06/19 08:44:05;;;;;;;6.70;5.72;;;22.30;99.90;;;;;;5060879;22;20057;-67
2023/06/19 08:46:31;;;;;;;10.95;5.18;;;22.50;99.90;;;;;;5042036;28;20045;-66
2023/06/19 08:48:57;;;;;;;7.18;5.65;;;22.50;99.90;;;;;;5039236;28;20047;-63
2023/06/19 08:51:22;;;;;;;6.13;5.47;;;22.50;99.90;;;;;;5043188;28;20042;-63
2023/06/19 08:54:01;;;;;;;8.63;5.60;;;22.40;99.90;;;;;;5040841;28;20045;-63
2023/06/19 08:56:27;;;;;;;8.30;5.53;;;22.50;99.90;;;;;;5040227;28;20107;-63
2023/06/19 08:58:53;;;;;;;6.50;4.88;;;22.40;99.90;;;;;;5041041;28;20049;-64
2023/06/19 09:01:19;;;;;;;8.07;5.60;;;22.40;99.90;;;;;;5043083;28;20080;-63
2023/06/19 09:03:46;;;;;;;8.48;6.35;;;22.40;99.90;;;;;;5042355;28;20057;-63
2023/06/19 09:06:16;;;;;;;6.80;5.60;;;22.50;99.90;;;;;;5038310;28;20072;-63
2023/06/19 09:08:41;;;;;;;7.55;6.50;;;22.60;99.90;;;;;;5038882;28;20075;-63
2023/06/19 09:11:07;;;;;;;9.43;6.90;;;22.70;99.90;;;;;;5039948;28;20080;-63
2023/06/19 09:13:33;;;;;;;7.70;6.90;;;22.80;99.90;;;;;;5042438;28;20049;-63
2023/06/19 09:16:05;;;;;;;12.40;6.78;;;22.90;99.90;;;;;;5040682;28;20471;-63
2023/06/19 09:18:41;;;;;;;7.78;6.63;;;22.90;99.90;;;;;;5041054;28;20061;-63
2023/06/19 09:21:18;;;;;;;9.82;7.30;;;22.90;99.90;;;;;;5040797;28;20056;-63
2023/06/19 09:23:45;;;;;;;8.30;7.07;;;23.10;99.90;;;;;;5039079;28;20142;-65
2023/06/19 09:26:14;;;;;;;14.75;7.78;;;23.30;99.90;;;;;;5042153;28;20606;-64
2023/06/19 09:28:42;;;;;;;10.20;7.22;;;23.40;99.90;;;;;;5038331;28;20049;-66
2023/06/19 09:31:08;;;;;;;14.52;7.03;;;23.30;99.90;;;;;;5042362;28;20038;-67
2023/06/19 09:33:35;;;;;;;10.98;6.82;;;23.20;99.90;;;;;;5041191;28;20073;-65
2023/06/19 09:36:03;;;;;;;9.50;7.20;;;23.30;99.90;;;;;;5040011;28;20057;-61
2023/06/19 09:38:38;;;;;;;10.82;6.70;;;23.30;99.90;;;;;;5042065;28;20046;-63
2023/06/19 09:41:05;;;;;;;8.05;7.25;;;23.40;99.90;;;;;;5038439;28;20084;-63
2023/06/19 09:43:37;;;;;;;9.98;7.60;;;23.50;99.90;;;;;;5041963;28;20431;-63
2023/06/19 09:46:04;;;;;;;;;;;23.70;99.90;;;;;;5041432;28;20132;-67
2023/06/19 09:48:32;;;;;;;9.52;7.50;;;23.70;99.90;;;;;;5041128;28;19921;-70
2023/06/19 09:51:13;;;;;;;10.77;7.78;;;23.70;99.90;;;;;;5041413;28;20093;-65
2023/06/19 09:53:40;;;;;;;11.32;7.03;;;23.70;99.90;;;;;;5040581;28;20107;-66
2023/06/19 09:56:07;;;;;;;8.50;6.63;;;23.80;99.90;;;;;;5042382;28;20872;-71
2023/06/19 09:58:34;;;;;;;8.57;6.88;;;23.80;99.90;;;;;;5040345;28;20057;-68
2023/06/19 10:01:01;;;;;;;8.38;6.60;;;24.00;99.90;;;;;;5040921;28;20093;-65
2023/06/19 10:03:34;;;;;;;7.88;6.35;;;24.00;99.90;;;;;;5041024;28;20046;-67
2023/06/19 10:06:01;;;;;;;10.70;5.20;;;24.00;99.90;;;;;;5040335;28;20039;-65
2023/06/19 10:08:30;;;;;;;9.30;5.45;;;24.10;99.60;;;;;;5041503;28;20049;-64
2023/06/19 10:10:57;;;;;;;13.48;5.35;;;24.10;99.60;;;;;;5038536;28;20450;-66
2023/06/19 10:13:33;;;;;;;6.35;4.72;;;23.90;99.90;;;;;;5041790;28;20049;-64
2023/06/19 10:15:59;;;;;;;6.68;4.25;;;24.10;99.50;;;;;;5040558;28;20068;-70
2023/06/19 10:18:26;;;;;;;20.58;5.95;;;24.00;99.60;;;;;;5042164;28;20045;-65
2023/06/19 10:20:53;;;;;;;8.43;4.43;;;24.00;99.30;;;;;;5041595;28;20099;-65
2023/06/19 10:23:22;;;;;;;6.78;4.38;;;24.00;99.70;;;;;;5039278;28;20052;-71
2023/06/19 10:25:59;;;;;;;10.95;4.97;;;24.10;99.70;;;;;;5042062;28;20056;-73
2023/06/19 10:28:27;;;;;;;20.75;5.47;;;24.10;99.50;;;;;;5040486;28;20064;-65
2023/06/19 10:31:06;;;;;;;20.73;5.57;;;24.10;99.20;;;;;;5042156;28;20060;-64
2023/06/19 10:33:34;;;;;;;10.40;5.43;;;24.20;99.60;;;;;;5041276;28;20053;-63
2023/06/19 10:36:02;;;;;;;11.85;7.10;;;24.20;99.60;;;;;;5040885;28;20492;-63
2023/06/19 10:38:29;;;;;;;10.93;6.90;;;24.20;99.60;;;;;;5041907;28;20052;-63
2023/06/19 10:40:56;;;;;;;11.05;6.95;;;24.30;99.50;;;;;;5040169;28;20053;-66
2023/06/19 10:43:27;;;;;;;8.50;6.70;;;24.40;99.30;;;;;;5041617;28;20061;-64
2023/06/19 10:45:53;;;;;;;8.68;6.65;;;24.60;99.30;;;;;;5034369;28;20037;-63
2023/06/19 10:48:24;;;;;;;10.65;6.10;;;24.70;99.60;;;;;;5040385;28;20048;-63
2023/06/19 10:50:51;;;;;;;9.85;5.97;;;24.70;99.30;;;;;;5040332;28;20579;-63
2023/06/19 10:53:32;;;;;;;8.05;6.35;;;24.90;99.20;;;;;;5039850;28;20063;-64
2023/06/19 10:56:00;;;;;;;9.88;6.43;;;24.80;99.30;;;;;;5041652;28;20045;-64
2023/06/19 10:58:26;;;;;;;10.25;6.68;;;25.00;99.10;;;;;;5038282;28;20046;-64
2023/06/19 11:00:52;;;;;;;8.38;5.32;;;24.80;99.00;;;;;;5037182;28;20069;-64
2023/06/19 11:03:19;;;;;;;10.30;5.20;;;25.00;98.90;;;;;;5036491;28;20045;-63
2023/06/19 11:05:45;;;;;;;9.57;5.82;;;24.90;99.00;;;;;;5037649;28;20038;-64
2023/06/19 11:08:16;;;;;;;10.65;5.13;;;24.90;98.70;;;;;;5041065;28;20064;-64
2023/06/19 11:10:42;;;;;;;10.02;4.93;;;24.90;98.60;;;;;;5039520;28;20048;-66
2023/06/19 11:13:17;;;;;;;10.32;5.82;;;24.90;98.60;;;;;;5041050;28;20084;-63
2023/06/19 11:15:44;;;;;;;8.82;5.82;;;24.80;98.50;;;;;;5038141;28;20049;-63
2023/06/19 11:18:10;;;;;;;10.23;6.03;;;24.80;98.50;;;;;;5044628;28;20101;-63
2023/06/19 11:20:49;;;;;;;11.45;5.72;;;24.70;98.50;;;;;;5044214;28;20083;-63
2023/06/19 11:23:15;;;;;;;8.80;5.00;;;24.80;98.60;;;;;;5044597;28;20046;-63
2023/06/19 11:25:42;;;;;;;7.85;5.18;;;24.90;98.20;;;;;;5045516;28;20060;-65
2023/06/19 11:28:17;;;;;;;9.27;5.28;;;25.00;98.30;;;;;;5043694;28;20045;-65
2023/06/19 11:30:43;;;;;;;5.95;5.15;;;25.00;97.70;;;;;;5045543;28;20073;-65
2023/06/19 11:33:22;;;;;;;11.43;5.05;;;25.20;97.80;;;;;;5042753;28;20057;-66
2023/06/19 11:35:52;;;;;;;9.80;5.28;;;25.20;97.90;;;;;;5044678;28;20041;-65
2023/06/19 11:38:22;;;;;;;8.00;5.60;;;25.30;97.10;;;;;;5045641;28;20046;-67
2023/06/19 11:40:49;;;;;;;9.38;5.15;;;25.10;96.90;;;;;;5043278;28;20042;-66
2023/06/19 11:43:25;;;;;;;8.15;5.32;;;25.00;97.70;;;;;;5044869;28;20531;-66
2023/06/19 11:45:52;;;;;;;9.85;5.80;;;25.20;97.10;;;;;;5043458;28;20061;-66
2023/06/19 11:48:24;;;;;;;8.50;5.50;;;25.10;97.70;;;;;;5045167;28;20037;-66
2023/06/19 11:50:51;;;;;;;10.80;5.97;;;25.20;97.70;;;;;;5042567;28;20076;-67
2023/06/19 11:53:17;;;;;;;11.32;6.50;;;25.20;97.60;;;;;;5024603;28;20125;-65
2023/06/19 11:55:43;;;;;;;9.65;5.60;;;25.10;97.50;;;;;;5031063;28;20060;-65
2023/06/19 11:58:10;;;;;;;12.13;5.72;;;25.20;97.70;;;;;;5043019;28;20045;-65
2023/06/19 12:00:38;;;;;;;6.55;5.47;;;25.30;97.60;;;;;;5042015;28;20050;-65
2023/06/19 12:03:04;;;;;;;10.35;6.13;;;25.30;97.40;;;;;;5037632;28;20045;-65
2023/06/19 12:05:30;;;;;;;8.02;5.65;;;25.30;97.60;;;;;;5043562;28;20049;-66
2023/06/19 12:07:57;;;;;;;7.00;5.43;;;25.40;97.60;;;;;;5043273;28;20064;-65
2023/06/19 12:10:22;;;;;;;11.32;5.55;;;25.60;97.40;;;;;;5042727;28;20045;-65
2023/06/19 12:12:48;;;;;;;11.93;6.32;;;25.40;97.60;;;;;;5043723;28;20044;-65
2023/06/19 12:15:14;;;;;;;13.15;6.50;;;25.30;97.40;;;;;;5042026;28;20049;-64
2023/06/19 12:17:40;;;;;;;9.35;6.32;;;25.50;97.30;;;;;;5044003;28;20077;-64
2023/06/19 12:20:07;;;;;;;9.38;5.57;;;25.40;97.50;;;;;;5040998;28;20045;-64
2023/06/19 12:22:34;;;;;;;9.52;6.18;;;25.40;97.20;;;;;;5043771;28;20045;-66
2023/06/19 12:25:00;;;;;;;8.70;6.35;;;25.40;97.50;;;;;;5023691;28;20052;-67
2023/06/19 12:27:26;;;;;;;12.82;6.35;;;25.60;97.30;;;;;;5023328;28;20052;-67
2023/06/19 12:29:52;;;;;;;12.57;7.05;;;25.50;97.30;;;;;;5023439;28;20042;-65
2023/06/19 12:32:17;;;;;;;14.50;6.10;;;25.40;97.00;;;;;;5039166;28;20096;-67
2023/06/19 12:34:46;;;;;;;12.13;6.15;;;25.50;97.20;;;;;;5043524;28;20045;-67
2023/06/19 12:37:17;;;;;;;7.70;6.22;;;25.60;96.70;;;;;;5041853;28;20045;-66
2023/06/19 12:39:43;;;;;;;7.57;5.65;;;25.60;96.70;;;;;;5024057;28;20148;-64
2023/06/19 12:42:11;;;;;;;13.77;6.68;;;25.50;97.10;;;;;;5022917;28;20050;-64
2023/06/19 12:44:38;;;;;;;8.82;6.53;;;25.60;97.00;;;;;;5022709;28;20741;-66
2023/06/19 12:47:04;;;;;;;10.45;6.60;;;25.30;97.20;;;;;;5023576;28;20057;-69